createdAt,value
2018-06-28T00:00:35.524Z,21.28
2018-06-28T00:01:35.349Z,21.29
2018-06-28T00:02:35.417Z,21.28
2018-06-28T00:03:35.508Z,21.28
2018-06-28T00:04:35.493Z,21.29
2018-06-28T00:05:35.231Z,21.28
2018-06-28T00:06:35.372Z,21.28
2018-06-28T00:07:35.263Z,21.29
2018-06-28T00:08:35.354Z,21.3
2018-06-28T00:09:35.428Z,21.29
2018-06-28T00:10:35.431Z,21.29
2018-06-28T00:11:35.499Z,21.28
2018-06-28T00:12:35.317Z,21.27
2018-06-28T00:13:35.493Z,21.25
2018-06-28T00:14:35.255Z,21.28
2018-06-28T00:15:35.441Z,21.25
2018-06-28T00:16:35.286Z,21.25
2018-06-28T00:17:35.346Z,21.29
2018-06-28T00:18:35.257Z,21.29
2018-06-28T00:19:35.410Z,21.27
2018-06-28T00:20:35.240Z,21.28
2018-06-28T00:21:35.287Z,21.24
2018-06-28T00:22:35.498Z,21.29
2018-06-28T00:23:35.305Z,21.28
2018-06-28T00:24:35.254Z,21.24
2018-06-28T00:25:35.231Z,21.24
2018-06-28T00:26:35.263Z,21.27
2018-06-28T00:27:35.400Z,21.25
2018-06-28T00:28:35.371Z,21.25
2018-06-28T00:29:35.394Z,21.24
2018-06-28T00:30:35.296Z,21.25
2018-06-28T00:31:35.338Z,21.24
2018-06-28T00:32:35.254Z,21.24
2018-06-28T00:33:35.470Z,21.23
2018-06-28T00:34:35.228Z,21.25
2018-06-28T00:35:35.457Z,21.24
2018-06-28T00:36:35.318Z,21.24
2018-06-28T00:37:35.369Z,21.24
2018-06-28T00:38:35.407Z,21.24
2018-06-28T00:39:35.309Z,21.23
2018-06-28T00:40:35.387Z,21.23
2018-06-28T00:41:35.279Z,21.24
2018-06-28T00:42:35.439Z,21.24
2018-06-28T00:43:35.317Z,21.23
2018-06-28T00:44:35.337Z,21.23
2018-06-28T00:45:35.479Z,21.24
2018-06-28T00:46:35.225Z,21.23
2018-06-28T00:47:35.328Z,21.23
2018-06-28T00:48:35.284Z,21.23
2018-06-28T00:49:35.337Z,21.24
2018-06-28T00:50:35.252Z,21.2
2018-06-28T00:51:35.390Z,21.22
2018-06-28T00:52:35.259Z,21.23
2018-06-28T00:53:35.460Z,21.22
2018-06-28T00:54:35.470Z,21.22
2018-06-28T00:55:35.457Z,21.22
2018-06-28T00:56:35.281Z,21.22
2018-06-28T00:57:35.248Z,21.22
2018-06-28T00:58:35.433Z,21.22
2018-06-28T00:59:35.336Z,21.21
2018-06-28T01:00:35.196Z,21.22
2018-06-28T01:01:35.225Z,21.22
2018-06-28T01:02:35.250Z,21.23
2018-06-28T01:03:35.498Z,21.2
2018-06-28T01:04:35.474Z,21.23
2018-06-28T01:05:35.438Z,21.21
2018-06-28T01:06:35.447Z,21.22
2018-06-28T01:07:35.392Z,21.21
2018-06-28T01:08:35.509Z,21.24
2018-06-28T01:09:35.335Z,21.22
2018-06-28T01:10:35.213Z,21.22
2018-06-28T01:11:35.511Z,21.21
2018-06-28T01:12:35.469Z,21.21
2018-06-28T01:13:35.563Z,21.22
2018-06-28T01:14:35.421Z,21.22
2018-06-28T01:15:35.460Z,21.21
2018-06-28T01:16:35.516Z,21.2
2018-06-28T01:17:35.407Z,21.21
2018-06-28T01:18:35.540Z,21.21
2018-06-28T01:19:35.231Z,21.2
2018-06-28T01:20:35.463Z,21.22
2018-06-28T01:21:35.419Z,21.21
2018-06-28T01:22:35.253Z,21.2
2018-06-28T01:23:35.220Z,21.21
2018-06-28T01:24:35.353Z,21.19
2018-06-28T01:25:35.259Z,21.21
2018-06-28T01:26:35.360Z,21.2
2018-06-28T01:27:35.242Z,21.22
2018-06-28T01:28:35.226Z,21.2
2018-06-28T01:29:35.405Z,21.21
2018-06-28T01:30:35.276Z,21.19
2018-06-28T01:31:35.356Z,21.19
2018-06-28T01:32:35.392Z,21.18
2018-06-28T01:33:35.447Z,21.2
2018-06-28T01:34:35.348Z,21.22
2018-06-28T01:35:35.415Z,21.2
2018-06-28T01:36:35.429Z,21.21
2018-06-28T01:37:35.224Z,21.18
2018-06-28T01:38:35.286Z,21.2
2018-06-28T01:39:35.250Z,21.18
2018-06-28T01:40:35.584Z,21.2
2018-06-28T01:41:35.302Z,21.21
2018-06-28T01:42:35.217Z,21.19
2018-06-28T01:43:35.264Z,21.18
2018-06-28T01:44:35.315Z,21.18
2018-06-28T01:45:35.393Z,21.18
2018-06-28T01:46:35.328Z,21.19
2018-06-28T01:47:35.460Z,21.2
2018-06-28T01:48:35.332Z,21.2
2018-06-28T01:49:35.549Z,21.17
2018-06-28T01:50:35.519Z,21.2
2018-06-28T01:51:35.373Z,21.18
2018-06-28T01:52:35.372Z,21.17
2018-06-28T01:53:35.277Z,21.19
2018-06-28T01:54:35.545Z,21.17
2018-06-28T01:55:35.302Z,21.17
2018-06-28T01:56:35.458Z,21.17
2018-06-28T01:57:35.439Z,21.16
2018-06-28T01:58:35.347Z,21.17
2018-06-28T01:59:35.204Z,21.17
2018-06-28T02:00:35.277Z,21.17
2018-06-28T02:01:35.426Z,21.17
2018-06-28T02:02:35.305Z,21.17
2018-06-28T02:03:35.257Z,21.17
2018-06-28T02:04:35.442Z,21.15
2018-06-28T02:05:35.310Z,21.18
2018-06-28T02:06:35.401Z,21.18
2018-06-28T02:07:35.401Z,21.15
2018-06-28T02:08:35.427Z,21.17
2018-06-28T02:09:35.280Z,21.17
2018-06-28T02:10:35.233Z,21.16
2018-06-28T02:11:35.343Z,21.15
2018-06-28T02:12:35.235Z,21.16
2018-06-28T02:13:35.273Z,21.17
2018-06-28T02:14:35.403Z,21.16
2018-06-28T02:15:35.428Z,21.14
2018-06-28T02:16:35.368Z,21.15
2018-06-28T02:17:35.210Z,21.15
2018-06-28T02:18:35.387Z,21.17
2018-06-28T02:19:35.265Z,21.15
2018-06-28T02:20:35.343Z,21.15
2018-06-28T02:21:35.331Z,21.16
2018-06-28T02:22:35.491Z,21.16
2018-06-28T02:23:35.367Z,21.15
2018-06-28T02:24:35.539Z,21.15
2018-06-28T02:25:35.227Z,21.15
2018-06-28T02:26:35.224Z,21.16
2018-06-28T02:27:35.380Z,21.11
2018-06-28T02:28:35.272Z,21.15
2018-06-28T02:29:35.420Z,21.13
2018-06-28T02:30:35.345Z,21.14
2018-06-28T02:31:35.415Z,21.14
2018-06-28T02:32:35.436Z,21.14
2018-06-28T02:33:35.245Z,21.13
2018-06-28T02:34:35.320Z,21.15
2018-06-28T02:35:35.224Z,21.13
2018-06-28T02:36:35.390Z,21.13
2018-06-28T02:37:35.422Z,21.13
2018-06-28T02:38:35.351Z,21.15
2018-06-28T02:39:35.409Z,21.13
2018-06-28T02:40:35.437Z,21.15
2018-06-28T02:41:35.353Z,21.13
2018-06-28T02:42:35.402Z,21.14
2018-06-28T02:43:35.238Z,21.11
2018-06-28T02:44:35.135Z,21.13
2018-06-28T02:45:35.352Z,21.15
2018-06-28T02:46:35.423Z,21.15
2018-06-28T02:47:35.249Z,21.15
2018-06-28T02:48:35.280Z,21.13
2018-06-28T02:49:35.382Z,21.13
2018-06-28T02:50:35.352Z,21.15
2018-06-28T02:51:35.358Z,21.11
2018-06-28T02:52:35.384Z,21.1
2018-06-28T02:53:35.421Z,21.11
2018-06-28T02:54:35.346Z,21.13
2018-06-28T02:55:35.127Z,21.11
2018-06-28T02:56:35.232Z,21.11
2018-06-28T02:57:35.327Z,21.13
2018-06-28T02:58:35.440Z,21.1
2018-06-28T02:59:35.257Z,21.1
2018-06-28T03:00:35.343Z,21.11
2018-06-28T03:01:35.261Z,21.13
2018-06-28T03:02:35.406Z,21.1
2018-06-28T03:03:35.476Z,21.1
2018-06-28T03:04:35.206Z,21.11
2018-06-28T03:05:35.322Z,21.11
2018-06-28T03:06:35.523Z,21.11
2018-06-28T03:07:35.197Z,21.11
2018-06-28T03:08:35.430Z,21.1
2018-06-28T03:09:35.583Z,21.1
2018-06-28T03:10:35.322Z,21.11
2018-06-28T03:11:35.471Z,21.09
2018-06-28T03:12:35.449Z,21.11
2018-06-28T03:13:35.244Z,21.1
2018-06-28T03:14:35.261Z,21.1
2018-06-28T03:15:35.237Z,21.1
2018-06-28T03:16:35.418Z,21.1
2018-06-28T03:17:35.377Z,21.1
2018-06-28T03:18:35.196Z,21.1
2018-06-28T03:19:35.397Z,21.09
2018-06-28T03:20:35.383Z,21.1
2018-06-28T03:21:35.354Z,21.1
2018-06-28T03:22:35.235Z,21.1
2018-06-28T03:23:35.706Z,21.08
2018-06-28T03:24:35.186Z,21.09
2018-06-28T03:25:35.298Z,21.08
2018-06-28T03:26:35.425Z,21.09
2018-06-28T03:27:35.247Z,21.09
2018-06-28T03:28:35.422Z,21.08
2018-06-28T03:29:35.287Z,21.09
2018-06-28T03:30:35.395Z,21.1
2018-06-28T03:31:35.410Z,21.1
2018-06-28T03:32:35.318Z,21.07
2018-06-28T03:33:35.398Z,21.07
2018-06-28T03:34:35.429Z,21.08
2018-06-28T03:35:35.195Z,21.09
2018-06-28T03:36:35.377Z,21.09
2018-06-28T03:37:35.611Z,21.07
2018-06-28T03:38:35.236Z,21.09
2018-06-28T03:39:35.287Z,21.08
2018-06-28T03:40:35.325Z,21.08
2018-06-28T03:41:35.330Z,21.09
2018-06-28T03:42:35.363Z,21.1
2018-06-28T03:43:35.259Z,21.08
2018-06-28T03:44:35.277Z,21.09
2018-06-28T03:45:35.284Z,21.1
2018-06-28T03:46:35.345Z,21.07
2018-06-28T03:47:35.216Z,21.08
2018-06-28T03:48:35.224Z,21.1
2018-06-28T03:49:35.431Z,21.09
2018-06-28T03:50:35.438Z,21.08
2018-06-28T03:51:35.203Z,21.09
2018-06-28T03:52:35.418Z,21.08
2018-06-28T03:53:35.185Z,21.06
2018-06-28T03:54:35.387Z,21.08
2018-06-28T03:55:35.383Z,21.06
2018-06-28T03:56:35.248Z,21.07
2018-06-28T03:57:35.407Z,21.06
2018-06-28T03:58:35.368Z,21.07
2018-06-28T03:59:35.350Z,21.08
2018-06-28T04:00:35.408Z,21.05
2018-06-28T04:01:35.431Z,21.07
2018-06-28T04:02:35.214Z,21.08
2018-06-28T04:03:35.481Z,21.04
2018-06-28T04:04:35.286Z,21.05
2018-06-28T04:05:35.341Z,21.08
2018-06-28T04:06:36.039Z,21.06
2018-06-28T04:07:35.515Z,21.06
2018-06-28T04:08:35.425Z,21.07
2018-06-28T04:09:35.281Z,21.07
2018-06-28T04:10:35.397Z,21.06
2018-06-28T04:11:35.326Z,21.08
2018-06-28T04:12:35.460Z,21.06
2018-06-28T04:13:35.105Z,21.07
2018-06-28T04:14:35.430Z,21.09
2018-06-28T04:15:35.283Z,21.07
2018-06-28T04:16:35.409Z,21.06
2018-06-28T04:17:35.185Z,21.04
2018-06-28T04:18:35.190Z,21.07
2018-06-28T04:19:35.357Z,21.06
2018-06-28T04:20:35.213Z,21.06
2018-06-28T04:21:35.286Z,21.07
2018-06-28T04:22:35.180Z,21.05
2018-06-28T04:23:35.416Z,21.06
2018-06-28T04:24:35.315Z,21.05
2018-06-28T04:25:35.197Z,21.07
2018-06-28T04:26:35.326Z,21.07
2018-06-28T04:27:35.258Z,21.06
2018-06-28T04:28:35.341Z,21.07
2018-06-28T04:29:35.420Z,21.06
2018-06-28T04:30:35.282Z,21.08
2018-06-28T04:31:35.198Z,21.06
2018-06-28T04:32:35.348Z,21.06
2018-06-28T04:33:35.255Z,21.06
2018-06-28T04:34:35.407Z,21.07
2018-06-28T04:35:35.350Z,21.06
2018-06-28T04:36:35.252Z,21.06
2018-06-28T04:37:35.397Z,21.06
2018-06-28T04:38:35.301Z,21.06
2018-06-28T04:39:35.244Z,21.06
2018-06-28T04:40:35.121Z,21.06
2018-06-28T04:41:35.370Z,21.06
2018-06-28T04:42:35.567Z,21.05
2018-06-28T04:43:35.639Z,21.06
2018-06-28T04:44:35.356Z,21.08
2018-06-28T04:45:35.337Z,21.07
2018-06-28T04:46:35.417Z,21.05
2018-06-28T04:47:35.410Z,21.07
2018-06-28T04:48:35.177Z,21.05
2018-06-28T04:49:35.220Z,21.08
2018-06-28T04:50:35.225Z,21.06
2018-06-28T04:51:35.241Z,21.04
2018-06-28T04:52:35.273Z,21.06
2018-06-28T04:53:35.419Z,21.06
2018-06-28T04:54:35.253Z,21.08
2018-06-28T04:55:35.344Z,21.06
2018-06-28T04:56:35.222Z,21.06
2018-06-28T04:57:35.341Z,21.06
2018-06-28T04:58:35.170Z,21.05
2018-06-28T04:59:35.362Z,21.05
2018-06-28T05:00:35.257Z,21.04
2018-06-28T05:01:35.349Z,21.13
2018-06-28T05:02:35.293Z,21.16
2018-06-28T05:03:35.269Z,21.14
2018-06-28T05:04:35.243Z,21.14
2018-06-28T05:05:35.205Z,21.14
2018-06-28T05:06:35.197Z,21.18
2018-06-28T05:07:35.164Z,21.2
2018-06-28T05:08:35.264Z,21.18
2018-06-28T05:09:35.377Z,21.19
2018-06-28T05:10:35.365Z,21.17
2018-06-28T05:11:35.414Z,21.19
2018-06-28T05:12:35.245Z,21.21
2018-06-28T05:13:35.320Z,21.23
2018-06-28T05:14:35.354Z,21.24
2018-06-28T05:15:35.201Z,21.28
2018-06-28T05:16:35.176Z,21.27
2018-06-28T05:17:35.374Z,21.23
2018-06-28T05:18:35.410Z,21.27
2018-06-28T05:19:35.262Z,21.25
2018-06-28T05:20:35.459Z,21.23
2018-06-28T05:21:35.282Z,21.23
2018-06-28T05:22:35.395Z,21.21
2018-06-28T05:23:35.184Z,21.21
2018-06-28T05:24:35.780Z,21.23
2018-06-28T05:25:35.133Z,21.25
2018-06-28T05:26:35.318Z,21.23
2018-06-28T05:27:35.437Z,21.24
2018-06-28T05:28:35.324Z,21.22
2018-06-28T05:29:35.379Z,21.24
2018-06-28T05:30:35.314Z,21.24
2018-06-28T05:31:35.325Z,21.22
2018-06-28T05:32:35.416Z,21.22
2018-06-28T05:33:35.367Z,21.24
2018-06-28T05:34:45.333Z,21.23
2018-06-28T05:35:35.066Z,21.25
2018-06-28T05:36:35.214Z,21.25
2018-06-28T05:37:35.141Z,21.27
2018-06-28T05:38:35.262Z,21.25
2018-06-28T05:39:35.246Z,21.25
2018-06-28T05:40:35.342Z,21.23
2018-06-28T05:41:35.419Z,21.23
2018-06-28T05:42:35.341Z,21.24
2018-06-28T05:43:35.436Z,21.24
2018-06-28T05:44:35.285Z,21.25
2018-06-28T05:45:35.491Z,21.24
2018-06-28T05:46:35.212Z,21.24
2018-06-28T05:47:35.256Z,21.24
2018-06-28T05:48:35.422Z,21.25
2018-06-28T05:49:35.181Z,21.23
2018-06-28T05:50:35.326Z,21.21
2018-06-28T05:51:35.381Z,21.19
2018-06-28T05:52:35.386Z,21.17
2018-06-28T05:53:35.310Z,21.18
2018-06-28T05:54:35.319Z,21.17
2018-06-28T05:55:35.150Z,21.18
2018-06-28T05:56:35.492Z,21.17
2018-06-28T05:57:35.385Z,21.17
2018-06-28T05:58:35.537Z,21.16
2018-06-28T05:59:35.380Z,21.17
2018-06-28T06:00:35.689Z,21.16
2018-06-28T06:01:35.398Z,21.14
2018-06-28T06:02:35.310Z,21.15
2018-06-28T06:03:35.402Z,21.15
2018-06-28T06:04:35.214Z,21.15
2018-06-28T06:05:35.111Z,21.15
2018-06-28T06:06:35.288Z,21.16
2018-06-28T06:07:35.229Z,21.14
2018-06-28T06:08:35.399Z,21.14
2018-06-28T06:09:35.464Z,21.15
2018-06-28T06:10:35.364Z,21.14
2018-06-28T06:11:35.248Z,21.13
2018-06-28T06:12:35.231Z,21.11
2018-06-28T06:13:35.122Z,21.11
2018-06-28T06:14:35.415Z,21.15
2018-06-28T06:15:35.302Z,21.13
2018-06-28T06:16:35.380Z,21.13
2018-06-28T06:17:35.273Z,21.13
2018-06-28T06:18:35.151Z,21.13
2018-06-28T06:19:35.420Z,21.13
2018-06-28T06:20:35.300Z,21.1
2018-06-28T06:21:35.297Z,21.13
2018-06-28T06:22:35.243Z,21.11
2018-06-28T06:23:35.274Z,21.1
2018-06-28T06:24:35.320Z,21.11
2018-06-28T06:25:35.221Z,21.13
2018-06-28T06:26:35.257Z,21.1
2018-06-28T06:27:35.234Z,21.11
2018-06-28T06:28:35.281Z,21.14
2018-06-28T06:29:35.277Z,21.13
2018-06-28T06:30:35.322Z,21.11
2018-06-28T06:31:35.134Z,21.11
2018-06-28T06:32:35.311Z,21.13
2018-06-28T06:33:35.354Z,21.1
2018-06-28T06:34:35.891Z,21.14
2018-06-28T06:35:35.353Z,21.09
2018-06-28T06:36:35.261Z,21.09
2018-06-28T06:37:35.309Z,21.11
2018-06-28T06:38:35.431Z,21.1
2018-06-28T06:39:35.381Z,21.1
2018-06-28T06:40:35.145Z,21.1
2018-06-28T06:41:35.409Z,21.1
2018-06-28T06:42:35.226Z,21.1
2018-06-28T06:43:35.221Z,21.1
2018-06-28T06:44:35.310Z,21.1
2018-06-28T06:45:35.270Z,21.11
2018-06-28T06:46:35.282Z,21.09
2018-06-28T06:47:35.481Z,21.1
2018-06-28T06:48:35.347Z,21.1
2018-06-28T06:49:35.099Z,21.08
2018-06-28T06:50:35.153Z,21.1
2018-06-28T06:51:35.407Z,21.1
2018-06-28T06:52:35.286Z,21.1
2018-06-28T06:53:35.230Z,21.1
2018-06-28T06:54:35.248Z,21.09
2018-06-28T06:55:35.193Z,21.08
2018-06-28T06:56:35.162Z,21.09
2018-06-28T06:57:35.662Z,21.13
2018-06-28T06:58:35.166Z,21.17
2018-06-28T06:59:35.246Z,21.21
2018-06-28T07:00:35.450Z,21.28
2018-06-28T07:01:35.377Z,21.24
2018-06-28T07:02:35.343Z,21.25
2018-06-28T07:03:35.662Z,21.21
2018-06-28T07:04:35.456Z,21.21
2018-06-28T07:05:35.331Z,21.2
2018-06-28T07:06:35.236Z,21.18
2018-06-28T07:07:35.116Z,21.19
2018-06-28T07:08:35.396Z,21.2
2018-06-28T07:09:35.371Z,21.21
2018-06-28T07:10:35.225Z,21.21
2018-06-28T07:11:35.150Z,21.18
2018-06-28T07:12:35.323Z,21.21
2018-06-28T07:13:35.226Z,21.21
2018-06-28T07:14:35.345Z,21.2
2018-06-28T07:15:35.217Z,21.21
2018-06-28T07:16:45.174Z,21.19
2018-06-28T07:17:35.283Z,21.19
2018-06-28T07:18:35.445Z,21.19
2018-06-28T07:19:35.283Z,21.21
2018-06-28T07:20:35.135Z,21.21
2018-06-28T07:21:35.058Z,21.2
2018-06-28T07:22:35.281Z,21.18
2018-06-28T07:23:35.232Z,21.17
2018-06-28T07:24:35.277Z,21.19
2018-06-28T07:25:35.197Z,21.21
2018-06-28T07:26:35.294Z,21.22
2018-06-28T07:27:35.147Z,21.21
2018-06-28T07:28:35.375Z,21.22
2018-06-28T07:29:35.221Z,21.23
2018-06-28T07:30:35.490Z,21.21
2018-06-28T07:31:35.120Z,21.23
2018-06-28T07:32:35.313Z,21.21
2018-06-28T07:33:35.353Z,21.18
2018-06-28T07:34:35.351Z,21.18
2018-06-28T07:35:35.538Z,21.16
2018-06-28T07:36:35.230Z,21.18
2018-06-28T07:37:35.145Z,21.16
2018-06-28T07:38:35.225Z,21.15
2018-06-28T07:39:35.137Z,21.15
2018-06-28T07:40:35.313Z,21.15
2018-06-28T07:41:35.181Z,21.16
2018-06-28T07:42:35.183Z,21.15
2018-06-28T07:43:35.220Z,21.14
2018-06-28T07:44:35.244Z,21.14
2018-06-28T07:45:35.205Z,21.15
2018-06-28T07:46:35.286Z,21.14
2018-06-28T07:47:35.242Z,21.16
2018-06-28T07:48:35.147Z,21.15
2018-06-28T07:49:35.242Z,21.14
2018-06-28T07:50:35.313Z,21.14
2018-06-28T07:51:35.364Z,21.1
2018-06-28T07:52:35.298Z,21.13
2018-06-28T07:53:35.213Z,21.14
2018-06-28T07:54:35.172Z,21.13
2018-06-28T07:55:35.249Z,21.11
2018-06-28T07:56:35.200Z,21.15
2018-06-28T07:57:35.161Z,21.13
2018-06-28T07:58:35.364Z,21.13
2018-06-28T07:59:35.349Z,21.11
2018-06-28T08:00:35.492Z,21.14
2018-06-28T08:01:35.417Z,21.13
2018-06-28T08:02:35.592Z,21.11
2018-06-28T08:03:35.190Z,21.13
2018-06-28T08:04:35.124Z,21.13
2018-06-28T08:05:35.157Z,21.1
2018-06-28T08:06:35.182Z,21.08
2018-06-28T08:07:35.401Z,21.11
2018-06-28T08:08:35.368Z,21.13
2018-06-28T08:09:35.237Z,21.13
2018-06-28T08:10:36.393Z,21.1
2018-06-28T08:11:35.246Z,21.11
2018-06-28T08:12:35.069Z,21.1
2018-06-28T08:13:35.177Z,21.1
2018-06-28T08:14:35.211Z,21.1
2018-06-28T08:15:35.084Z,21.11
2018-06-28T08:16:35.134Z,21.09
2018-06-28T08:17:35.290Z,21.1
2018-06-28T08:18:35.232Z,21.13
2018-06-28T08:19:35.415Z,21.1
2018-06-28T08:20:35.290Z,21.13
2018-06-28T08:21:35.808Z,21.11
2018-06-28T08:22:35.196Z,21.11
2018-06-28T08:23:35.228Z,21.14
2018-06-28T08:24:35.137Z,21.17
2018-06-28T08:25:35.348Z,21.18
2018-06-28T08:26:35.108Z,21.2
2018-06-28T08:27:35.314Z,21.18
2018-06-28T08:28:35.197Z,21.17
2018-06-28T08:29:35.246Z,21.19
2018-06-28T08:30:35.265Z,21.17
2018-06-28T08:31:35.304Z,21.15
2018-06-28T08:32:35.102Z,21.16
2018-06-28T08:33:35.138Z,21.13
2018-06-28T08:34:35.134Z,21.14
2018-06-28T08:35:35.232Z,21.14
2018-06-28T08:36:35.380Z,21.13
2018-06-28T08:37:35.098Z,21.13
2018-06-28T08:38:35.219Z,21.13
2018-06-28T08:39:35.316Z,21.13
2018-06-28T08:40:35.207Z,21.13
2018-06-28T08:41:35.271Z,21.13
2018-06-28T08:42:35.145Z,21.14
2018-06-28T08:43:35.270Z,21.14
2018-06-28T08:44:35.281Z,21.15
2018-06-28T08:45:35.165Z,21.14
2018-06-28T08:46:35.439Z,21.13
2018-06-28T08:47:35.198Z,21.13
2018-06-28T08:48:35.265Z,21.13
2018-06-28T08:49:35.106Z,21.14
2018-06-28T08:50:35.163Z,21.11
2018-06-28T08:51:35.072Z,21.1
2018-06-28T08:52:35.277Z,21.11
2018-06-28T08:53:35.232Z,21.13
2018-06-28T08:54:35.371Z,21.1
2018-06-28T08:55:35.233Z,21.1
2018-06-28T08:56:35.333Z,21.1
2018-06-28T08:57:35.475Z,21.1
2018-06-28T08:58:35.257Z,21.1
2018-06-28T08:59:35.210Z,21.1
2018-06-28T09:00:35.158Z,21.1
2018-06-28T09:01:35.179Z,21.11
2018-06-28T09:02:35.362Z,21.11
2018-06-28T09:03:35.080Z,21.09
2018-06-28T09:04:35.192Z,21.08
2018-06-28T09:05:35.152Z,21.09
2018-06-28T09:06:35.432Z,21.1
2018-06-28T09:07:35.210Z,21.1
2018-06-28T09:08:35.209Z,21.07
2018-06-28T09:09:35.415Z,21.1
2018-06-28T09:10:35.279Z,21.09
2018-06-28T09:11:35.114Z,21.1
2018-06-28T09:12:35.262Z,21.11
2018-06-28T09:13:35.316Z,21.09
2018-06-28T09:14:35.117Z,21.08
2018-06-28T09:15:35.277Z,21.09
2018-06-28T09:16:35.303Z,21.08
2018-06-28T09:17:35.159Z,21.08
2018-06-28T09:18:35.447Z,21.09
2018-06-28T09:19:35.394Z,21.1
2018-06-28T09:20:35.142Z,21.08
2018-06-28T09:21:35.139Z,21.09
2018-06-28T09:22:35.557Z,21.09
2018-06-28T09:23:35.165Z,21.09
2018-06-28T09:24:35.309Z,21.09
2018-06-28T09:25:35.247Z,21.09
2018-06-28T09:26:35.172Z,21.1
2018-06-28T09:27:35.144Z,21.09
2018-06-28T09:28:35.299Z,21.08
2018-06-28T09:29:35.083Z,21.08
2018-06-28T09:30:35.292Z,21.07
2018-06-28T09:31:35.395Z,21.07
2018-06-28T09:32:35.197Z,21.09
2018-06-28T09:33:35.315Z,21.07
2018-06-28T09:34:35.222Z,21.06
2018-06-28T09:35:35.305Z,21.06
2018-06-28T09:36:35.226Z,21.07
2018-06-28T09:37:35.280Z,21.07
2018-06-28T09:38:35.284Z,21.07
2018-06-28T09:39:35.152Z,21.07
2018-06-28T09:40:35.106Z,21.07
2018-06-28T09:41:35.262Z,21.07
2018-06-28T09:42:35.117Z,21.07
2018-06-28T09:43:35.308Z,21.07
2018-06-28T09:44:35.422Z,21.06
2018-06-28T09:45:35.229Z,21.06
2018-06-28T09:46:35.135Z,21.09
2018-06-28T09:47:35.181Z,21.06
2018-06-28T09:48:35.287Z,21.07
2018-06-28T09:49:35.227Z,21.07
2018-06-28T09:50:35.437Z,21.08
2018-06-28T09:51:35.154Z,21.06
2018-06-28T09:52:35.249Z,21.07
2018-06-28T09:53:35.308Z,21.08
2018-06-28T09:54:35.105Z,21.08
2018-06-28T09:55:35.123Z,21.09
2018-06-28T09:56:35.046Z,21.07
2018-06-28T09:57:35.388Z,21.09
2018-06-28T09:58:35.189Z,21.05
2018-06-28T09:59:35.384Z,21.08
2018-06-28T10:00:36.461Z,21.06
2018-06-28T10:01:35.286Z,21.08
2018-06-28T10:02:35.250Z,21.09
2018-06-28T10:03:35.163Z,21.07
2018-06-28T10:04:35.369Z,21.09
2018-06-28T10:05:35.163Z,21.06
2018-06-28T10:06:35.175Z,21.07
2018-06-28T10:07:35.185Z,21.06
2018-06-28T10:08:35.569Z,21.06
2018-06-28T10:09:35.136Z,21.05
2018-06-28T10:10:35.319Z,21.05
2018-06-28T10:11:35.199Z,21.06
2018-06-28T10:12:35.171Z,21.06
2018-06-28T10:13:35.187Z,21.07
2018-06-28T10:14:35.163Z,21.06
2018-06-28T10:15:35.285Z,21.07
2018-06-28T10:16:35.198Z,21.07
2018-06-28T10:17:35.203Z,21.07
2018-06-28T10:18:35.242Z,21.06
2018-06-28T10:19:35.209Z,21.06
2018-06-28T10:20:35.266Z,21.07
2018-06-28T10:21:35.268Z,21.06
2018-06-28T10:22:35.088Z,21.06
2018-06-28T10:23:35.346Z,21.07
2018-06-28T10:24:35.560Z,21.06
2018-06-28T10:25:35.077Z,21.05
2018-06-28T10:26:35.349Z,21.05
2018-06-28T10:27:35.163Z,21.05
2018-06-28T10:28:35.076Z,21.05
2018-06-28T10:29:35.379Z,21.06
2018-06-28T10:30:35.219Z,21.05
2018-06-28T10:31:35.125Z,21.06
2018-06-28T10:32:35.564Z,21.06
2018-06-28T10:33:35.143Z,21.06
2018-06-28T10:34:35.084Z,21.05
2018-06-28T10:35:35.337Z,21.06
2018-06-28T10:36:35.448Z,21.06
2018-06-28T10:37:35.403Z,21.06
2018-06-28T10:38:35.365Z,21.04
2018-06-28T10:39:35.412Z,21.07
2018-06-28T10:40:35.185Z,21.06
2018-06-28T10:41:35.159Z,21.05
2018-06-28T10:42:35.277Z,21.04
2018-06-28T10:43:35.048Z,21.05
2018-06-28T10:44:35.395Z,21.05
2018-06-28T10:45:35.106Z,21.06
2018-06-28T10:46:35.195Z,21.06
2018-06-28T10:47:35.809Z,21.03
2018-06-28T10:48:35.145Z,21.04
2018-06-28T10:49:35.309Z,21.04
2018-06-28T10:50:35.451Z,21.07
2018-06-28T10:51:35.198Z,21.05
2018-06-28T10:52:35.023Z,21.06
2018-06-28T10:53:35.251Z,21.05
2018-06-28T10:54:35.219Z,21.05
2018-06-28T10:55:35.053Z,21.05
2018-06-28T10:56:35.165Z,21.04
2018-06-28T10:57:35.084Z,21.06
2018-06-28T10:58:35.483Z,21.06
2018-06-28T10:59:35.700Z,21.06
2018-06-28T11:00:35.263Z,21.06
2018-06-28T11:01:35.046Z,21.05
2018-06-28T11:02:35.517Z,21.05
2018-06-28T11:03:35.309Z,21.06
2018-06-28T11:04:35.213Z,21.06
2018-06-28T11:05:35.151Z,21.07
2018-06-28T11:06:35.379Z,21.06
2018-06-28T11:07:35.631Z,21.05
2018-06-28T11:08:35.467Z,21.05
2018-06-28T11:09:35.169Z,21.06
2018-06-28T11:10:35.053Z,21.05
2018-06-28T11:11:35.087Z,21.06
2018-06-28T11:12:35.119Z,21.06
2018-06-28T11:13:35.148Z,21.05
2018-06-28T11:14:35.115Z,21.05
2018-06-28T11:15:35.345Z,21.05
2018-06-28T11:16:35.430Z,21.03
2018-06-28T11:17:35.380Z,21.06
2018-06-28T11:18:35.557Z,21.06
2018-06-28T11:19:35.097Z,21.05
2018-06-28T11:20:35.394Z,21.06
2018-06-28T11:21:35.123Z,21.06
2018-06-28T11:22:35.194Z,21.04
2018-06-28T11:23:35.342Z,21.04
2018-06-28T11:24:35.136Z,21.06
2018-06-28T11:25:35.255Z,21.06
2018-06-28T11:26:35.698Z,21.04
2018-06-28T11:27:35.311Z,21.06
2018-06-28T11:28:35.236Z,21.06
2018-06-28T11:29:35.381Z,21.04
2018-06-28T11:30:35.130Z,21.05
2018-06-28T11:31:35.337Z,21.06
2018-06-28T11:32:35.133Z,21.06
2018-06-28T11:33:35.098Z,21.07
2018-06-28T11:34:35.163Z,21.04
2018-06-28T11:35:35.291Z,21.06
2018-06-28T11:36:35.331Z,21.04
2018-06-28T11:37:35.185Z,21.06
2018-06-28T11:38:35.184Z,21.06
2018-06-28T11:39:35.303Z,21.05
2018-06-28T11:40:35.250Z,21.06
2018-06-28T11:41:35.270Z,21.07
2018-06-28T11:42:35.110Z,21.04
2018-06-28T11:43:35.227Z,21.05
2018-06-28T11:44:35.538Z,21.06
2018-06-28T11:45:35.301Z,21.05
2018-06-28T11:46:35.065Z,21.05
2018-06-28T11:47:35.365Z,21.06
2018-06-28T11:48:35.165Z,21.06
2018-06-28T11:49:35.156Z,21.03
2018-06-28T11:50:35.294Z,21.06
2018-06-28T11:51:35.336Z,21.06
2018-06-28T11:52:35.315Z,21.06
2018-06-28T11:53:35.353Z,21.05
2018-06-28T11:54:35.271Z,21.04
2018-06-28T11:55:47.602Z,21.05
2018-06-28T11:56:35.160Z,21.05
2018-06-28T11:57:35.387Z,21.06
2018-06-28T11:58:35.046Z,21.06
2018-06-28T11:59:35.285Z,21.04
2018-06-28T12:00:35.057Z,21.05
2018-06-28T12:01:35.245Z,21.07
2018-06-28T12:02:35.189Z,21.06
2018-06-28T12:03:35.299Z,21.04
2018-06-28T12:04:35.182Z,21.06
2018-06-28T12:05:35.644Z,21.06
2018-06-28T12:06:35.319Z,21.06
2018-06-28T12:07:35.008Z,21.05
2018-06-28T12:08:35.185Z,21.06
2018-06-28T12:09:35.084Z,21.04
2018-06-28T12:10:35.227Z,21.06
2018-06-28T12:11:35.208Z,21.06
2018-06-28T12:12:35.245Z,21.06
2018-06-28T12:13:35.145Z,21.06
2018-06-28T12:14:35.267Z,21.05
2018-06-28T12:15:35.153Z,21.06
2018-06-28T12:16:35.024Z,21.05
2018-06-28T12:17:35.257Z,21.04
2018-06-28T12:18:35.261Z,21.06
2018-06-28T12:19:35.185Z,21.05
2018-06-28T12:20:35.273Z,21.05
2018-06-28T12:21:35.129Z,21.04
2018-06-28T12:22:35.113Z,21.06
2018-06-28T12:23:35.385Z,21.05
2018-06-28T12:24:35.067Z,21.06
2018-06-28T12:25:35.068Z,21.06
2018-06-28T12:26:36.045Z,21.06
2018-06-28T12:27:35.879Z,21.06
2018-06-28T12:28:35.095Z,21.09
2018-06-28T12:29:35.750Z,21.09
2018-06-28T12:30:35.957Z,21.1
2018-06-28T12:31:35.867Z,21.08
2018-06-28T12:32:35.514Z,21.07
2018-06-28T12:33:35.950Z,21.06
2018-06-28T12:34:45.266Z,21.07
2018-06-28T12:35:35.954Z,21.09
2018-06-28T12:36:36.108Z,21.07
2018-06-28T12:37:35.050Z,21.07
2018-06-28T12:38:36.066Z,21.07
2018-06-28T12:39:35.082Z,21.06
2018-06-28T12:40:35.980Z,21.07
2018-06-28T12:41:35.491Z,21.07
2018-06-28T12:42:35.836Z,21.07
2018-06-28T12:43:36.049Z,21.07
2018-06-28T12:44:35.908Z,21.08
2018-06-28T12:45:35.779Z,21.08
2018-06-28T12:46:35.458Z,21.06
2018-06-28T12:47:36.148Z,21.05
2018-06-28T12:48:35.144Z,21.07
2018-06-28T12:49:35.092Z,21.07
2018-06-28T12:50:36.144Z,21.06
2018-06-28T12:51:36.788Z,21.08
2018-06-28T12:52:35.151Z,21.05
2018-06-28T12:53:35.958Z,21.06
2018-06-28T12:54:35.393Z,21.06
2018-06-28T12:55:35.904Z,21.06